sensor_id;sensor_type;location;lat;lon;timestamp;P1;durP1;ratioP1;P2;durP2;ratioP2
10142;SDS011;5112;54.088;13.446;2024-02-21T00:07:58;20.07;;;9.03;;
10142;SDS011;5112;54.088;13.446;2024-02-21T00:18:01;19.07;;;9.87;;
10142;SDS011;5112;54.088;13.446;2024-02-21T00:28:04;19.13;;;10.20;;
10142;SDS011;5112;54.088;13.446;2024-02-21T00:38:07;27.53;;;11.30;;
10142;SDS011;5112;54.088;13.446;2024-02-21T00:48:09;24.67;;;11.37;;
10142;SDS011;5112;54.088;13.446;2024-02-21T00:58:12;22.77;;;12.40;;
10142;SDS011;5112;54.088;13.446;2024-02-21T01:08:13;28.80;;;13.73;;
10142;SDS011;5112;54.088;13.446;2024-02-21T01:18:16;24.17;;;12.97;;
10142;SDS011;5112;54.088;13.446;2024-02-21T01:28:18;23.27;;;13.63;;
10142;SDS011;5112;54.088;13.446;2024-02-21T01:38:21;26.10;;;15.27;;
10142;SDS011;5112;54.088;13.446;2024-02-21T01:48:23;28.63;;;15.93;;
10142;SDS011;5112;54.088;13.446;2024-02-21T01:58:26;29.27;;;16.63;;
10142;SDS011;5112;54.088;13.446;2024-02-21T02:08:29;33.07;;;18.27;;
10142;SDS011;5112;54.088;13.446;2024-02-21T02:18:34;36.03;;;19.20;;
10142;SDS011;5112;54.088;13.446;2024-02-21T02:28:37;36.17;;;18.90;;
10142;SDS011;5112;54.088;13.446;2024-02-21T02:38:38;38.10;;;20.20;;
10142;SDS011;5112;54.088;13.446;2024-02-21T02:48:41;29.23;;;20.60;;
10142;SDS011;5112;54.088;13.446;2024-02-21T02:58:43;36.37;;;20.40;;
10142;SDS011;5112;54.088;13.446;2024-02-21T03:08:47;41.47;;;26.25;;
10142;SDS011;5112;54.088;13.446;2024-02-21T03:18:49;33.00;;;21.70;;
10142;SDS011;5112;54.088;13.446;2024-02-21T03:28:52;39.90;;;22.33;;
10142;SDS011;5112;54.088;13.446;2024-02-21T03:38:53;38.40;;;21.63;;
10142;SDS011;5112;54.088;13.446;2024-02-21T03:48:57;39.00;;;22.30;;
10142;SDS011;5112;54.088;13.446;2024-02-21T03:58:58;35.40;;;21.80;;
10142;SDS011;5112;54.088;13.446;2024-02-21T04:09:01;31.27;;;20.97;;
10142;SDS011;5112;54.088;13.446;2024-02-21T04:19:03;41.63;;;22.40;;
10142;SDS011;5112;54.088;13.446;2024-02-21T04:29:06;36.33;;;20.87;;
10142;SDS011;5112;54.088;13.446;2024-02-21T04:39:07;30.87;;;20.43;;
10142;SDS011;5112;54.088;13.446;2024-02-21T04:49:10;29.23;;;18.73;;
10142;SDS011;5112;54.088;13.446;2024-02-21T04:59:12;29.57;;;18.97;;
10142;SDS011;5112;54.088;13.446;2024-02-21T05:09:15;24.07;;;17.73;;
10142;SDS011;5112;54.088;13.446;2024-02-21T05:19:16;22.63;;;17.07;;
10142;SDS011;5112;54.088;13.446;2024-02-21T05:29:19;19.37;;;15.33;;
10142;SDS011;5112;54.088;13.446;2024-02-21T05:39:21;24.73;;;15.60;;
10142;SDS011;5112;54.088;13.446;2024-02-21T05:49:25;21.40;;;15.57;;
10142;SDS011;5112;54.088;13.446;2024-02-21T05:59:27;21.80;;;16.10;;
10142;SDS011;5112;54.088;13.446;2024-02-21T06:09:30;24.83;;;19.02;;
10142;SDS011;5112;54.088;13.446;2024-02-21T06:19:32;21.30;;;15.70;;
10142;SDS011;5112;54.088;13.446;2024-02-21T06:29:36;22.60;;;16.50;;
10142;SDS011;5112;54.088;13.446;2024-02-21T06:39:38;23.00;;;16.80;;
10142;SDS011;5112;54.088;13.446;2024-02-21T06:49:42;20.10;;;15.80;;
10142;SDS011;5112;54.088;13.446;2024-02-21T06:59:43;20.17;;;14.33;;
10142;SDS011;5112;54.088;13.446;2024-02-21T07:09:46;21.00;;;15.00;;
10142;SDS011;5112;54.088;13.446;2024-02-21T07:19:48;18.63;;;13.40;;
10142;SDS011;5112;54.088;13.446;2024-02-21T07:29:51;13.67;;;9.10;;
10142;SDS011;5112;54.088;13.446;2024-02-21T07:39:53;15.83;;;10.13;;
10142;SDS011;5112;54.088;13.446;2024-02-21T07:49:56;15.77;;;10.13;;
10142;SDS011;5112;54.088;13.446;2024-02-21T07:59:57;8.77;;;6.63;;
10142;SDS011;5112;54.088;13.446;2024-02-21T08:10:00;7.77;;;6.33;;
10142;SDS011;5112;54.088;13.446;2024-02-21T08:20:02;8.03;;;6.70;;
10142;SDS011;5112;54.088;13.446;2024-02-21T08:30:06;7.27;;;5.30;;
10142;SDS011;5112;54.088;13.446;2024-02-21T08:40:08;10.40;;;4.87;;
10142;SDS011;5112;54.088;13.446;2024-02-21T08:50:12;7.57;;;4.80;;
10142;SDS011;5112;54.088;13.446;2024-02-21T09:00:14;6.97;;;4.23;;
10142;SDS011;5112;54.088;13.446;2024-02-21T09:10:18;4.87;;;2.87;;
10142;SDS011;5112;54.088;13.446;2024-02-21T09:20:19;5.03;;;2.77;;
10142;SDS011;5112;54.088;13.446;2024-02-21T09:30:22;2.93;;;2.63;;
10142;SDS011;5112;54.088;13.446;2024-02-21T09:40:24;5.37;;;2.90;;
10142;SDS011;5112;54.088;13.446;2024-02-21T09:50:28;5.60;;;2.67;;
10142;SDS011;5112;54.088;13.446;2024-02-21T10:00:31;3.53;;;2.53;;
10142;SDS011;5112;54.088;13.446;2024-02-21T10:20:59;2.50;;;2.23;;
10142;SDS011;5112;54.088;13.446;2024-02-21T10:31:03;5.70;;;1.83;;
10142;SDS011;5112;54.088;13.446;2024-02-21T10:41:05;6.07;;;2.70;;
10142;SDS011;5112;54.088;13.446;2024-02-21T10:51:10;4.17;;;2.07;;
10142;SDS011;5112;54.088;13.446;2024-02-21T11:01:19;2.30;;;1.37;;
10142;SDS011;5112;54.088;13.446;2024-02-21T11:11:25;2.50;;;1.33;;
10142;SDS011;5112;54.088;13.446;2024-02-21T11:21:32;3.13;;;1.27;;
10142;SDS011;5112;54.088;13.446;2024-02-21T11:31:39;1.53;;;0.97;;
10142;SDS011;5112;54.088;13.446;2024-02-21T11:41:42;3.40;;;1.27;;
10142;SDS011;5112;54.088;13.446;2024-02-21T11:51:44;2.07;;;1.00;;
10142;SDS011;5112;54.088;13.446;2024-02-21T12:01:46;1.27;;;1.00;;
10142;SDS011;5112;54.088;13.446;2024-02-21T12:11:56;2.53;;;1.43;;
10142;SDS011;5112;54.088;13.446;2024-02-21T12:21:59;0.97;;;0.87;;
10142;SDS011;5112;54.088;13.446;2024-02-21T12:32:02;1.70;;;0.90;;
10142;SDS011;5112;54.088;13.446;2024-02-21T12:42:04;2.77;;;1.30;;
10142;SDS011;5112;54.088;13.446;2024-02-21T12:52:07;2.10;;;1.23;;
10142;SDS011;5112;54.088;13.446;2024-02-21T13:02:09;4.60;;;1.70;;
10142;SDS011;5112;54.088;13.446;2024-02-21T13:12:12;3.77;;;2.07;;
10142;SDS011;5112;54.088;13.446;2024-02-21T13:22:13;4.63;;;1.90;;
10142;SDS011;5112;54.088;13.446;2024-02-21T13:32:16;2.80;;;1.67;;
10142;SDS011;5112;54.088;13.446;2024-02-21T13:42:18;2.00;;;1.53;;
10142;SDS011;5112;54.088;13.446;2024-02-21T13:52:21;3.50;;;1.77;;
10142;SDS011;5112;54.088;13.446;2024-02-21T14:02:26;2.00;;;1.47;;
10142;SDS011;5112;54.088;13.446;2024-02-21T14:12:29;2.60;;;1.30;;
10142;SDS011;5112;54.088;13.446;2024-02-21T14:22:30;3.73;;;1.90;;
10142;SDS011;5112;54.088;13.446;2024-02-21T14:32:33;2.37;;;1.37;;
10142;SDS011;5112;54.088;13.446;2024-02-21T14:42:35;2.73;;;1.57;;
10142;SDS011;5112;54.088;13.446;2024-02-21T14:52:37;6.07;;;2.20;;
10142;SDS011;5112;54.088;13.446;2024-02-21T15:02:39;2.40;;;1.70;;
10142;SDS011;5112;54.088;13.446;2024-02-21T15:12:42;2.53;;;1.37;;
10142;SDS011;5112;54.088;13.446;2024-02-21T15:22:44;3.83;;;1.50;;
10142;SDS011;5112;54.088;13.446;2024-02-21T15:32:47;1.80;;;1.70;;
10142;SDS011;5112;54.088;13.446;2024-02-21T15:42:49;2.10;;;1.77;;
10142;SDS011;5112;54.088;13.446;2024-02-21T15:52:52;2.13;;;2.03;;
10142;SDS011;5112;54.088;13.446;2024-02-21T16:02:54;2.80;;;2.40;;
10142;SDS011;5112;54.088;13.446;2024-02-21T16:12:58;2.90;;;2.70;;
10142;SDS011;5112;54.088;13.446;2024-02-21T16:22:59;4.93;;;4.03;;
10142;SDS011;5112;54.088;13.446;2024-02-21T16:33:04;6.50;;;5.90;;
10142;SDS011;5112;54.088;13.446;2024-02-21T16:43:06;10.77;;;6.60;;
10142;SDS011;5112;54.088;13.446;2024-02-21T16:53:09;6.83;;;6.13;;
10142;SDS011;5112;54.088;13.446;2024-02-21T17:03:10;7.47;;;5.80;;
10142;SDS011;5112;54.088;13.446;2024-02-21T17:13:13;9.13;;;6.10;;
10142;SDS011;5112;54.088;13.446;2024-02-21T17:23:15;6.30;;;5.70;;
10142;SDS011;5112;54.088;13.446;2024-02-21T17:33:18;6.57;;;5.90;;
10142;SDS011;5112;54.088;13.446;2024-02-21T17:43:19;9.47;;;6.47;;
10142;SDS011;5112;54.088;13.446;2024-02-21T17:53:22;8.67;;;6.40;;
10142;SDS011;5112;54.088;13.446;2024-02-21T18:03:25;8.87;;;6.53;;
10142;SDS011;5112;54.088;13.446;2024-02-21T18:13:31;7.80;;;6.90;;
10142;SDS011;5112;54.088;13.446;2024-02-21T18:23:32;9.13;;;6.67;;
10142;SDS011;5112;54.088;13.446;2024-02-21T18:33:38;10.05;;;8.65;;
10142;SDS011;5112;54.088;13.446;2024-02-21T18:43:44;9.40;;;7.40;;
10142;SDS011;5112;54.088;13.446;2024-02-21T18:53:47;15.37;;;7.30;;
10142;SDS011;5112;54.088;13.446;2024-02-21T19:03:49;7.33;;;6.63;;
10142;SDS011;5112;54.088;13.446;2024-02-21T19:13:52;7.13;;;5.90;;
10142;SDS011;5112;54.088;13.446;2024-02-21T19:23:54;7.50;;;5.60;;
10142;SDS011;5112;54.088;13.446;2024-02-21T19:33:57;7.63;;;5.73;;
10142;SDS011;5112;54.088;13.446;2024-02-21T19:43:58;9.93;;;6.73;;
10142;SDS011;5112;54.088;13.446;2024-02-21T19:54:01;9.27;;;7.83;;
10142;SDS011;5112;54.088;13.446;2024-02-21T20:04:03;9.50;;;8.33;;
10142;SDS011;5112;54.088;13.446;2024-02-21T20:14:06;9.87;;;8.43;;
10142;SDS011;5112;54.088;13.446;2024-02-21T20:24:08;10.63;;;8.73;;
10142;SDS011;5112;54.088;13.446;2024-02-21T20:34:12;11.40;;;8.67;;
10142;SDS011;5112;54.088;13.446;2024-02-21T20:44:14;14.90;;;8.83;;
10142;SDS011;5112;54.088;13.446;2024-02-21T20:54:17;10.70;;;8.30;;
10142;SDS011;5112;54.088;13.446;2024-02-21T21:04:18;11.57;;;8.07;;
10142;SDS011;5112;54.088;13.446;2024-02-21T21:14:22;8.27;;;6.70;;
10142;SDS011;5112;54.088;13.446;2024-02-21T21:24:26;10.03;;;6.50;;
10142;SDS011;5112;54.088;13.446;2024-02-21T21:34:30;8.33;;;6.67;;
10142;SDS011;5112;54.088;13.446;2024-02-21T21:44:32;9.13;;;6.83;;
10142;SDS011;5112;54.088;13.446;2024-02-21T21:54:35;8.30;;;6.60;;
10142;SDS011;5112;54.088;13.446;2024-02-21T22:04:36;10.60;;;6.67;;
10142;SDS011;5112;54.088;13.446;2024-02-21T22:14:40;7.13;;;6.33;;
10142;SDS011;5112;54.088;13.446;2024-02-21T22:24:41;10.17;;;6.50;;
10142;SDS011;5112;54.088;13.446;2024-02-21T22:34:45;8.27;;;6.27;;
10142;SDS011;5112;54.088;13.446;2024-02-21T22:44:47;7.13;;;6.43;;
10142;SDS011;5112;54.088;13.446;2024-02-21T22:54:50;8.93;;;5.90;;
10142;SDS011;5112;54.088;13.446;2024-02-21T23:04:51;8.13;;;6.10;;
10142;SDS011;5112;54.088;13.446;2024-02-21T23:14:54;11.10;;;6.57;;
10142;SDS011;5112;54.088;13.446;2024-02-21T23:24:56;9.20;;;6.90;;
10142;SDS011;5112;54.088;13.446;2024-02-21T23:34:59;7.07;;;5.83;;
10142;SDS011;5112;54.088;13.446;2024-02-21T23:45:00;13.43;;;6.13;;
10142;SDS011;5112;54.088;13.446;2024-02-21T23:55:05;8.13;;;5.17;;
